sensor_id;sensor_type;location;lat;lon;timestamp;pressure;altitude;pressure_sealevel;temperature
66113;BMP280;52893;52.870;5.822;2023-07-13T00:00:26;101178.38;;;18.71
66113;BMP280;52893;52.870;5.822;2023-07-13T00:02:53;101181.84;;;18.68
66113;BMP280;52893;52.870;5.822;2023-07-13T00:05:21;101186.97;;;18.66
66113;BMP280;52893;52.870;5.822;2023-07-13T00:07:49;101190.09;;;18.64
66113;BMP280;52893;52.870;5.822;2023-07-13T00:10:17;101193.66;;;18.65
66113;BMP280;52893;52.870;5.822;2023-07-13T00:12:45;101189.34;;;18.67
66113;BMP280;52893;52.870;5.822;2023-07-13T00:15:15;101191.38;;;18.71
66113;BMP280;52893;52.870;5.822;2023-07-13T00:17:46;101192.59;;;18.73
66113;BMP280;52893;52.870;5.822;2023-07-13T00:20:14;101196.19;;;18.77
66113;BMP280;52893;52.870;5.822;2023-07-13T00:22:42;101196.25;;;18.81
66113;BMP280;52893;52.870;5.822;2023-07-13T00:25:11;101183.22;;;18.81
66113;BMP280;52893;52.870;5.822;2023-07-13T00:27:38;101195.09;;;18.85
66113;BMP280;52893;52.870;5.822;2023-07-13T00:30:09;101196.75;;;18.90
66113;BMP280;52893;52.870;5.822;2023-07-13T00:32:37;101203.88;;;18.91
66113;BMP280;52893;52.870;5.822;2023-07-13T00:35:07;101199.47;;;18.86
66113;BMP280;52893;52.870;5.822;2023-07-13T00:37:35;101190.00;;;18.87
66113;BMP280;52893;52.870;5.822;2023-07-13T00:40:03;101193.56;;;18.88
66113;BMP280;52893;52.870;5.822;2023-07-13T00:42:32;101190.06;;;18.91
66113;BMP280;52893;52.870;5.822;2023-07-13T00:47:52;101186.94;;;18.92
66113;BMP280;52893;52.870;5.822;2023-07-13T00:50:21;101184.94;;;18.93
66113;BMP280;52893;52.870;5.822;2023-07-13T00:52:50;101199.16;;;18.91
66113;BMP280;52893;52.870;5.822;2023-07-13T00:55:21;101152.59;;;18.67
66113;BMP280;52893;52.870;5.822;2023-07-13T00:57:49;101193.13;;;18.82
66113;BMP280;52893;52.870;5.822;2023-07-13T01:00:17;101193.06;;;18.79
66113;BMP280;52893;52.870;5.822;2023-07-13T01:02:45;101196.16;;;18.74
66113;BMP280;52893;52.870;5.822;2023-07-13T01:05:16;101200.50;;;18.71
66113;BMP280;52893;52.870;5.822;2023-07-13T01:07:45;101204.72;;;18.65
66113;BMP280;52893;52.870;5.822;2023-07-13T01:10:13;101202.28;;;18.60
66113;BMP280;52893;52.870;5.822;2023-07-13T01:12:41;101207.34;;;18.54
66113;BMP280;52893;52.870;5.822;2023-07-13T01:15:34;101214.75;;;18.47
66113;BMP280;52893;52.870;5.822;2023-07-13T01:18:03;101213.09;;;18.42
66113;BMP280;52893;52.870;5.822;2023-07-13T01:20:33;101203.56;;;18.40
66113;BMP280;52893;52.870;5.822;2023-07-13T01:23:05;101196.41;;;18.35
66113;BMP280;52893;52.870;5.822;2023-07-13T01:25:34;101184.50;;;18.31
66113;BMP280;52893;52.870;5.822;2023-07-13T01:28:03;101180.41;;;18.22
66113;BMP280;52893;52.870;5.822;2023-07-13T01:30:31;101196.34;;;18.32
66113;BMP280;52893;52.870;5.822;2023-07-13T01:32:58;101197.16;;;18.32
66113;BMP280;52893;52.870;5.822;2023-07-13T01:35:26;101200.72;;;18.33
66113;BMP280;52893;52.870;5.822;2023-07-13T01:37:54;101199.56;;;18.34
66113;BMP280;52893;52.870;5.822;2023-07-13T01:40:24;101186.16;;;18.36
66113;BMP280;52893;52.870;5.822;2023-07-13T01:42:51;101182.19;;;18.37
66113;BMP280;52893;52.870;5.822;2023-07-13T01:45:20;101188.59;;;18.41
66113;BMP280;52893;52.870;5.822;2023-07-13T01:47:47;101189.84;;;18.43
66113;BMP280;52893;52.870;5.822;2023-07-13T01:50:15;101190.59;;;18.44
66113;BMP280;52893;52.870;5.822;2023-07-13T01:52:43;101189.44;;;18.45
66113;BMP280;52893;52.870;5.822;2023-07-13T01:55:10;101192.22;;;18.45
66113;BMP280;52893;52.870;5.822;2023-07-13T01:57:39;101187.47;;;18.45
66113;BMP280;52893;52.870;5.822;2023-07-13T02:00:11;101189.44;;;18.45
66113;BMP280;52893;52.870;5.822;2023-07-13T02:02:47;101185.81;;;18.41
66113;BMP280;52893;52.870;5.822;2023-07-13T02:05:15;101183.81;;;18.38
66113;BMP280;52893;52.870;5.822;2023-07-13T02:07:42;101189.31;;;18.38
66113;BMP280;52893;52.870;5.822;2023-07-13T02:10:11;101191.69;;;18.36
66113;BMP280;52893;52.870;5.822;2023-07-13T02:12:40;101194.06;;;18.37
66113;BMP280;52893;52.870;5.822;2023-07-13T02:15:08;101189.31;;;18.38
66113;BMP280;52893;52.870;5.822;2023-07-13T02:17:36;101190.94;;;18.39
66113;BMP280;52893;52.870;5.822;2023-07-13T02:20:05;101191.78;;;18.43
66113;BMP280;52893;52.870;5.822;2023-07-13T02:22:33;101191.03;;;18.46
66113;BMP280;52893;52.870;5.822;2023-07-13T02:25:00;101194.97;;;18.45
66113;BMP280;52893;52.870;5.822;2023-07-13T02:27:28;101201.34;;;18.49
66113;BMP280;52893;52.870;5.822;2023-07-13T02:29:57;101189.56;;;18.52
66113;BMP280;52893;52.870;5.822;2023-07-13T02:32:24;101199.84;;;18.55
66113;BMP280;52893;52.870;5.822;2023-07-13T02:34:52;101193.56;;;18.58
66113;BMP280;52893;52.870;5.822;2023-07-13T02:37:20;101193.16;;;18.56
66113;BMP280;52893;52.870;5.822;2023-07-13T02:39:47;101201.50;;;18.59
66113;BMP280;52893;52.870;5.822;2023-07-13T02:42:15;101195.16;;;18.59
66113;BMP280;52893;52.870;5.822;2023-07-13T02:44:44;101201.53;;;18.63
66113;BMP280;52893;52.870;5.822;2023-07-13T02:47:13;101206.31;;;18.66
66113;BMP280;52893;52.870;5.822;2023-07-13T02:49:40;101202.81;;;18.69
66113;BMP280;52893;52.870;5.822;2023-07-13T02:52:08;101205.56;;;18.69
66113;BMP280;52893;52.870;5.822;2023-07-13T02:54:35;101209.50;;;18.68
66113;BMP280;52893;52.870;5.822;2023-07-13T02:57:03;101211.84;;;18.66
66113;BMP280;52893;52.870;5.822;2023-07-13T02:59:30;101217.75;;;18.64
66113;BMP280;52893;52.870;5.822;2023-07-13T03:01:58;101210.25;;;18.65
66113;BMP280;52893;52.870;5.822;2023-07-13T03:04:28;101213.44;;;18.67
66113;BMP280;52893;52.870;5.822;2023-07-13T03:06:55;101202.38;;;18.67
66113;BMP280;52893;52.870;5.822;2023-07-13T03:09:25;101200.38;;;18.64
66113;BMP280;52893;52.870;5.822;2023-07-13T03:11:54;101209.03;;;18.62
66113;BMP280;52893;52.870;5.822;2023-07-13T03:14:27;101211.34;;;18.57
66113;BMP280;52893;52.870;5.822;2023-07-13T03:16:54;101216.41;;;18.55
66113;BMP280;52893;52.870;5.822;2023-07-13T03:19:25;101216.81;;;18.53
66113;BMP280;52893;52.870;5.822;2023-07-13T03:21:54;101210.00;;;18.47
66113;BMP280;52893;52.870;5.822;2023-07-13T03:24:21;101216.34;;;18.48
66113;BMP280;52893;52.870;5.822;2023-07-13T03:26:52;101210.81;;;18.48
66113;BMP280;52893;52.870;5.822;2023-07-13T03:29:19;101223.09;;;18.50
66113;BMP280;52893;52.870;5.822;2023-07-13T03:31:46;101217.56;;;18.50
66113;BMP280;52893;52.870;5.822;2023-07-13T03:34:14;101220.31;;;18.50
66113;BMP280;52893;52.870;5.822;2023-07-13T03:36:42;101219.53;;;18.50
66113;BMP280;52893;52.870;5.822;2023-07-13T03:39:14;101220.31;;;18.50
66113;BMP280;52893;52.870;5.822;2023-07-13T03:41:52;101234.59;;;18.52
66113;BMP280;52893;52.870;5.822;2023-07-13T03:44:20;101198.75;;;18.33
66113;BMP280;52893;52.870;5.822;2023-07-13T03:46:52;101234.22;;;18.54
66113;BMP280;52893;52.870;5.822;2023-07-13T03:49:20;101233.78;;;18.52
66113;BMP280;52893;52.870;5.822;2023-07-13T03:51:47;101223.09;;;18.50
66113;BMP280;52893;52.870;5.822;2023-07-13T03:54:16;101233.72;;;18.48
66113;BMP280;52893;52.870;5.822;2023-07-13T03:56:44;101246.31;;;18.46
66113;BMP280;52893;52.870;5.822;2023-07-13T03:59:12;101229.31;;;18.44
66113;BMP280;52893;52.870;5.822;2023-07-13T04:01:39;101240.38;;;18.44
66113;BMP280;52893;52.870;5.822;2023-07-13T04:04:07;101243.13;;;18.44
66113;BMP280;52893;52.870;5.822;2023-07-13T04:06:34;101243.94;;;18.44
66113;BMP280;52893;52.870;5.822;2023-07-13T04:09:03;101246.31;;;18.46
66113;BMP280;52893;52.870;5.822;2023-07-13T04:11:33;101250.25;;;18.45
66113;BMP280;52893;52.870;5.822;2023-07-13T04:14:02;101252.63;;;18.46
66113;BMP280;52893;52.870;5.822;2023-07-13T04:16:30;101257.38;;;18.46
66113;BMP280;52893;52.870;5.822;2023-07-13T04:18:57;101251.84;;;18.46
66113;BMP280;52893;52.870;5.822;2023-07-13T04:21:27;101253.03;;;18.45
66113;BMP280;52893;52.870;5.822;2023-07-13T04:23:54;101255.38;;;18.43
66113;BMP280;52893;52.870;5.822;2023-07-13T04:26:22;101254.94;;;18.41
66113;BMP280;52893;52.870;5.822;2023-07-13T04:28:51;101262.44;;;18.40
66113;BMP280;52893;52.870;5.822;2023-07-13T04:31:19;101265.56;;;18.39
66113;BMP280;52893;52.870;5.822;2023-07-13T04:33:47;101264.31;;;18.36
66113;BMP280;52893;52.870;5.822;2023-07-13T04:36:15;101263.56;;;18.36
66113;BMP280;52893;52.870;5.822;2023-07-13T04:38:43;101265.09;;;18.33
66113;BMP280;52893;52.870;5.822;2023-07-13T04:41:10;101269.09;;;18.36
66113;BMP280;52893;52.870;5.822;2023-07-13T04:43:38;101272.25;;;18.38
66113;BMP280;52893;52.870;5.822;2023-07-13T04:46:08;101276.63;;;18.39
66113;BMP280;52893;52.870;5.822;2023-07-13T04:48:37;101279.50;;;18.46
66113;BMP280;52893;52.870;5.822;2023-07-13T04:51:05;101272.50;;;18.52
66113;BMP280;52893;52.870;5.822;2023-07-13T04:53:32;101280.09;;;18.58
66113;BMP280;52893;52.870;5.822;2023-07-13T04:56:01;101280.94;;;18.62
66113;BMP280;52893;52.870;5.822;2023-07-13T04:58:28;101278.22;;;18.66
66113;BMP280;52893;52.870;5.822;2023-07-13T05:01:00;101281.41;;;18.68
66113;BMP280;52893;52.870;5.822;2023-07-13T05:03:29;101287.81;;;18.72
66113;BMP280;52893;52.870;5.822;2023-07-13T05:05:58;101291.78;;;18.75
66113;BMP280;52893;52.870;5.822;2023-07-13T05:08:26;101298.19;;;18.79
66113;BMP280;52893;52.870;5.822;2023-07-13T05:10:53;101292.31;;;18.84
66113;BMP280;52893;52.870;5.822;2023-07-13T05:13:21;101295.59;;;18.89
66113;BMP280;52893;52.870;5.822;2023-07-13T05:15:56;101296.00;;;18.95
66113;BMP280;52893;52.870;5.822;2023-07-13T05:18:24;101300.88;;;19.01
66113;BMP280;52893;52.870;5.822;2023-07-13T05:20:59;101304.84;;;19.04
66113;BMP280;52893;52.870;5.822;2023-07-13T05:23:27;101304.84;;;19.04
66113;BMP280;52893;52.870;5.822;2023-07-13T05:25:55;101317.56;;;19.08
66113;BMP280;52893;52.870;5.822;2023-07-13T05:28:23;101315.25;;;19.10
66113;BMP280;52893;52.870;5.822;2023-07-13T05:30:50;101310.97;;;19.16
66113;BMP280;52893;52.870;5.822;2023-07-13T05:33:18;101314.63;;;19.24
66113;BMP280;52893;52.870;5.822;2023-07-13T05:35:46;101318.63;;;19.30
66113;BMP280;52893;52.870;5.822;2023-07-13T05:38:15;101316.66;;;19.31
66113;BMP280;52893;52.870;5.822;2023-07-13T05:40:43;101318.69;;;19.34
66113;BMP280;52893;52.870;5.822;2023-07-13T05:43:10;101310.81;;;19.36
66113;BMP280;52893;52.870;5.822;2023-07-13T05:45:38;101320.38;;;19.42
66113;BMP280;52893;52.870;5.822;2023-07-13T05:48:05;101322.03;;;19.46
66113;BMP280;52893;52.870;5.822;2023-07-13T05:50:33;101327.25;;;19.55
66113;BMP280;52893;52.870;5.822;2023-07-13T05:53:00;101324.59;;;19.65
66113;BMP280;52893;52.870;5.822;2023-07-13T05:55:29;101321.53;;;19.74
66113;BMP280;52893;52.870;5.822;2023-07-13T05:57:56;101325.09;;;19.78
66113;BMP280;52893;52.870;5.822;2023-07-13T06:00:25;101326.31;;;19.77
66113;BMP280;52893;52.870;5.822;2023-07-13T06:02:52;101330.59;;;19.71
66113;BMP280;52893;52.870;5.822;2023-07-13T06:05:20;101336.91;;;19.68
66113;BMP280;52893;52.870;5.822;2023-07-13T06:07:47;101336.44;;;19.62
66113;BMP280;52893;52.870;5.822;2023-07-13T06:10:14;101329.28;;;19.58
66113;BMP280;52893;52.870;5.822;2023-07-13T06:12:43;101335.56;;;19.55
66113;BMP280;52893;52.870;5.822;2023-07-13T06:15:11;101338.84;;;19.64
66113;BMP280;52893;52.870;5.822;2023-07-13T06:17:38;101345.28;;;19.75
66113;BMP280;52893;52.870;5.822;2023-07-13T06:20:07;101342.66;;;19.89
66113;BMP280;52893;52.870;5.822;2023-07-13T06:22:34;101331.31;;;20.01
66113;BMP280;52893;52.870;5.822;2023-07-13T06:25:01;101335.41;;;20.14
66113;BMP280;52893;52.870;5.822;2023-07-13T06:27:30;101343.09;;;20.31
66113;BMP280;52893;52.870;5.822;2023-07-13T06:29:58;101349.16;;;20.48
66113;BMP280;52893;52.870;5.822;2023-07-13T06:32:26;101346.88;;;20.64
66113;BMP280;52893;52.870;5.822;2023-07-13T06:34:53;101351.38;;;20.79
66113;BMP280;52893;52.870;5.822;2023-07-13T06:37:21;101344.25;;;20.85
66113;BMP280;52893;52.870;5.822;2023-07-13T06:39:48;101346.25;;;20.91
66113;BMP280;52893;52.870;5.822;2023-07-13T06:42:16;101351.09;;;20.98
66113;BMP280;52893;52.870;5.822;2023-07-13T06:44:43;101363.00;;;21.02
66113;BMP280;52893;52.870;5.822;2023-07-13T06:47:12;101358.28;;;21.06
66113;BMP280;52893;52.870;5.822;2023-07-13T06:49:40;101358.25;;;21.10
66113;BMP280;52893;52.870;5.822;2023-07-13T06:52:07;101365.78;;;21.06
66113;BMP280;52893;52.870;5.822;2023-07-13T06:54:34;101361.78;;;21.00
66113;BMP280;52893;52.870;5.822;2023-07-13T06:57:02;101366.13;;;20.93
66113;BMP280;52893;52.870;5.822;2023-07-13T06:59:29;101360.53;;;20.90
66113;BMP280;52893;52.870;5.822;2023-07-13T07:01:57;101373.25;;;20.91
66113;BMP280;52893;52.870;5.822;2023-07-13T07:04:25;101373.25;;;20.91
66113;BMP280;52893;52.870;5.822;2023-07-13T07:06:54;101371.63;;;20.90
66113;BMP280;52893;52.870;5.822;2023-07-13T07:09:21;101372.03;;;20.92
66113;BMP280;52893;52.870;5.822;2023-07-13T07:11:49;101381.19;;;20.96
66113;BMP280;52893;52.870;5.822;2023-07-13T07:14:16;101380.44;;;20.96
66113;BMP280;52893;52.870;5.822;2023-07-13T07:16:43;101385.16;;;20.95
66113;BMP280;52893;52.870;5.822;2023-07-13T07:19:11;101382.75;;;20.90
66113;BMP280;52893;52.870;5.822;2023-07-13T07:21:39;101382.31;;;20.84
66113;BMP280;52893;52.870;5.822;2023-07-13T07:24:07;101383.47;;;20.80
66113;BMP280;52893;52.870;5.822;2023-07-13T07:26:34;101381.09;;;20.78
66113;BMP280;52893;52.870;5.822;2023-07-13T07:29:02;101374.75;;;20.81
66113;BMP280;52893;52.870;5.822;2023-07-13T07:31:29;101372.03;;;20.92
66113;BMP280;52893;52.870;5.822;2023-07-13T07:33:56;101364.16;;;21.01
66113;BMP280;52893;52.870;5.822;2023-07-13T07:36:24;101359.78;;;21.00
66113;BMP280;52893;52.870;5.822;2023-07-13T07:38:53;101361.38;;;21.01
66113;BMP280;52893;52.870;5.822;2023-07-13T07:41:20;101361.38;;;21.01
66113;BMP280;52893;52.870;5.822;2023-07-13T07:43:47;101361.03;;;21.06
66113;BMP280;52893;52.870;5.822;2023-07-13T07:46:15;101367.03;;;21.19
66113;BMP280;52893;52.870;5.822;2023-07-13T07:48:42;101376.59;;;21.28
66113;BMP280;52893;52.870;5.822;2023-07-13T07:51:10;101381.03;;;21.36
66113;BMP280;52893;52.870;5.822;2023-07-13T07:53:37;101380.66;;;21.45
66113;BMP280;52893;52.870;5.822;2023-07-13T07:56:06;101383.84;;;21.43
66113;BMP280;52893;52.870;5.822;2023-07-13T07:58:33;101390.94;;;21.41
66113;BMP280;52893;52.870;5.822;2023-07-13T08:01:04;101391.69;;;21.27
66113;BMP280;52893;52.870;5.822;2023-07-13T08:03:32;101390.84;;;21.16
66113;BMP280;52893;52.870;5.822;2023-07-13T08:05:59;101384.47;;;21.12
66113;BMP280;52893;52.870;5.822;2023-07-13T08:08:27;101393.19;;;21.07
66113;BMP280;52893;52.870;5.822;2023-07-13T08:10:54;101397.13;;;21.06
66113;BMP280;52893;52.870;5.822;2023-07-13T08:13:23;101397.94;;;21.10
66113;BMP280;52893;52.870;5.822;2023-07-13T08:15:51;101394.00;;;21.11
66113;BMP280;52893;52.870;5.822;2023-07-13T08:18:18;101393.25;;;21.18
66113;BMP280;52893;52.870;5.822;2023-07-13T08:20:45;101398.00;;;21.24
66113;BMP280;52893;52.870;5.822;2023-07-13T08:23:13;101391.72;;;21.34
66113;BMP280;52893;52.870;5.822;2023-07-13T08:25:41;101398.47;;;21.40
66113;BMP280;52893;52.870;5.822;2023-07-13T08:28:08;101392.53;;;21.38
66113;BMP280;52893;52.870;5.822;2023-07-13T08:30:37;101397.25;;;21.31
66113;BMP280;52893;52.870;5.822;2023-07-13T08:33:04;101392.88;;;21.26
66113;BMP280;52893;52.870;5.822;2023-07-13T08:35:32;101397.28;;;21.34
66113;BMP280;52893;52.870;5.822;2023-07-13T08:37:59;101402.88;;;21.41
66113;BMP280;52893;52.870;5.822;2023-07-13T08:40:27;101400.19;;;21.63
66113;BMP280;52893;52.870;5.822;2023-07-13T08:42:57;101405.03;;;21.90
66113;BMP280;52893;52.870;5.822;2023-07-13T08:45:30;101411.41;;;22.12
66113;BMP280;52893;52.870;5.822;2023-07-13T08:48:02;101413.03;;;22.20
66113;BMP280;52893;52.870;5.822;2023-07-13T08:50:35;101407.88;;;22.36
66113;BMP280;52893;52.870;5.822;2023-07-13T08:53:03;101411.03;;;22.52
66113;BMP280;52893;52.870;5.822;2023-07-13T08:55:33;101412.19;;;22.73
66113;BMP280;52893;52.870;5.822;2023-07-13T08:58:09;101407.44;;;22.77
66113;BMP280;52893;52.870;5.822;2023-07-13T09:00:44;101413.00;;;22.69
66113;BMP280;52893;52.870;5.822;2023-07-13T09:03:20;101415.81;;;22.55
66113;BMP280;52893;52.870;5.822;2023-07-13T09:05:52;101422.19;;;22.56
66113;BMP280;52893;52.870;5.822;2023-07-13T09:08:34;101418.19;;;22.75
66113;BMP280;52893;52.870;5.822;2023-07-13T09:11:17;101422.53;;;22.93
66113;BMP280;52893;52.870;5.822;2023-07-13T09:13:52;101422.88;;;23.09
66113;BMP280;52893;52.870;5.822;2023-07-13T09:16:22;101429.19;;;23.17
66113;BMP280;52893;52.870;5.822;2023-07-13T09:18:53;101441.09;;;23.28
66113;BMP280;52893;52.870;5.822;2023-07-13T09:21:24;101426.41;;;23.31
66113;BMP280;52893;52.870;5.822;2023-07-13T09:23:53;101431.50;;;23.47
66113;BMP280;52893;52.870;5.822;2023-07-13T09:26:24;101432.28;;;23.51
66113;BMP280;52893;52.870;5.822;2023-07-13T09:28:55;101427.41;;;23.65
66113;BMP280;52893;52.870;5.822;2023-07-13T09:31:28;101436.25;;;23.60
66113;BMP280;52893;52.870;5.822;2023-07-13T09:33:59;101428.22;;;23.69
66113;BMP280;52893;52.870;5.822;2023-07-13T09:36:29;101429.72;;;23.84
66113;BMP280;52893;52.870;5.822;2023-07-13T09:38:59;101440.78;;;23.99
66113;BMP280;52893;52.870;5.822;2023-07-13T09:41:37;101441.78;;;24.22
66113;BMP280;52893;52.870;5.822;2023-07-13T09:44:09;101443.31;;;24.30
66113;BMP280;52893;52.870;5.822;2023-07-13T09:46:39;101443.03;;;24.18
66113;BMP280;52893;52.870;5.822;2023-07-13T09:49:11;101446.38;;;23.99
66113;BMP280;52893;52.870;5.822;2023-07-13T09:51:41;101447.50;;;24.05
66113;BMP280;52893;52.870;5.822;2023-07-13T09:54:18;101438.34;;;24.01
66113;BMP280;52893;52.870;5.822;2023-07-13T09:56:46;101437.47;;;24.14
66113;BMP280;52893;52.870;5.822;2023-07-13T09:59:20;101445.25;;;24.40
66113;BMP280;52893;52.870;5.822;2023-07-13T10:01:48;101449.06;;;24.57
66113;BMP280;52893;52.870;5.822;2023-07-13T10:04:19;101444.97;;;24.69
66113;BMP280;52893;52.870;5.822;2023-07-13T10:06:47;101447.66;;;24.83
66113;BMP280;52893;52.870;5.822;2023-07-13T10:09:15;101456.13;;;25.09
66113;BMP280;52893;52.870;5.822;2023-07-13T10:11:43;101450.47;;;25.16
66113;BMP280;52893;52.870;5.822;2023-07-13T10:14:13;101439.69;;;25.15
66113;BMP280;52893;52.870;5.822;2023-07-13T10:16:43;101439.47;;;25.33
66113;BMP280;52893;52.870;5.822;2023-07-13T10:19:14;101447.97;;;25.56
66113;BMP280;52893;52.870;5.822;2023-07-13T10:21:50;101445.16;;;25.82
66113;BMP280;52893;52.870;5.822;2023-07-13T10:24:21;101456.06;;;25.77
66113;BMP280;52893;52.870;5.822;2023-07-13T10:26:55;101450.25;;;25.64
66113;BMP280;52893;52.870;5.822;2023-07-13T10:29:25;101453.94;;;25.58
66113;BMP280;52893;52.870;5.822;2023-07-13T10:31:54;101459.81;;;25.67
66113;BMP280;52893;52.870;5.822;2023-07-13T10:34:23;101464.91;;;25.72
66113;BMP280;52893;52.870;5.822;2023-07-13T10:36:52;101425.56;;;25.29
66113;BMP280;52893;52.870;5.822;2023-07-13T10:39:21;101464.56;;;25.40
66113;BMP280;52893;52.870;5.822;2023-07-13T10:41:54;101461.69;;;25.43
66113;BMP280;52893;52.870;5.822;2023-07-13T10:44:24;101467.06;;;25.61
66113;BMP280;52893;52.870;5.822;2023-07-13T10:46:55;101474.13;;;25.69
66113;BMP280;52893;52.870;5.822;2023-07-13T10:49:24;101480.06;;;25.74
66113;BMP280;52893;52.870;5.822;2023-07-13T10:51:55;101474.13;;;25.69
66113;BMP280;52893;52.870;5.822;2023-07-13T10:54:27;101480.69;;;25.59
66113;BMP280;52893;52.870;5.822;2023-07-13T10:57:17;101495.53;;;25.52
66113;BMP280;52893;52.870;5.822;2023-07-13T10:59:47;101489.16;;;25.78
66113;BMP280;52893;52.870;5.822;2023-07-13T11:02:25;101483.66;;;26.02
66113;BMP280;52893;52.870;5.822;2023-07-13T11:04:55;101486.88;;;26.27
66113;BMP280;52893;52.870;5.822;2023-07-13T11:07:26;101490.31;;;26.34
66113;BMP280;52893;52.870;5.822;2023-07-13T11:09:55;101491.94;;;26.59
66113;BMP280;52893;52.870;5.822;2023-07-13T11:12:29;101503.59;;;26.77
66113;BMP280;52893;52.870;5.822;2023-07-13T11:15:26;101506.78;;;26.32
66113;BMP280;52893;52.870;5.822;2023-07-13T11:17:54;101485.34;;;26.22
66113;BMP280;52893;52.870;5.822;2023-07-13T11:20:37;101499.78;;;26.21
66113;BMP280;52893;52.870;5.822;2023-07-13T11:23:18;101502.06;;;25.99
66113;BMP280;52893;52.870;5.822;2023-07-13T11:25:47;101515.22;;;26.02
66113;BMP280;52893;52.870;5.822;2023-07-13T11:28:22;101510.94;;;26.24
66113;BMP280;52893;52.870;5.822;2023-07-13T11:31:03;101501.13;;;26.09
66113;BMP280;52893;52.870;5.822;2023-07-13T11:34:01;101500.75;;;26.07
66113;BMP280;52893;52.870;5.822;2023-07-13T11:36:31;101512.00;;;26.30
66113;BMP280;52893;52.870;5.822;2023-07-13T11:39:05;101501.53;;;26.58
66113;BMP280;52893;52.870;5.822;2023-07-13T11:41:43;101512.50;;;26.72
66113;BMP280;52893;52.870;5.822;2023-07-13T11:44:14;101506.50;;;26.50
66113;BMP280;52893;52.870;5.822;2023-07-13T11:46:48;101511.59;;;26.32
66113;BMP280;52893;52.870;5.822;2023-07-13T11:49:18;101508.31;;;26.37
66113;BMP280;52893;52.870;5.822;2023-07-13T11:51:45;101519.56;;;26.33
66113;BMP280;52893;52.870;5.822;2023-07-13T11:54:26;101512.63;;;26.41
66113;BMP280;52893;52.870;5.822;2023-07-13T11:56:55;101515.97;;;26.56
66113;BMP280;52893;52.870;5.822;2023-07-13T11:59:23;101518.34;;;26.58
66113;BMP280;52893;52.870;5.822;2023-07-13T12:01:53;101522.38;;;26.57
66113;BMP280;52893;52.870;5.822;2023-07-13T12:04:24;101516.38;;;26.54
66113;BMP280;52893;52.870;5.822;2023-07-13T12:06:57;101531.34;;;26.44
66113;BMP280;52893;52.870;5.822;2023-07-13T12:09:27;101527.13;;;26.60
66113;BMP280;52893;52.870;5.822;2023-07-13T12:11:56;101527.25;;;26.52
66113;BMP280;52893;52.870;5.822;2023-07-13T12:14:24;101525.47;;;26.62
66113;BMP280;52893;52.870;5.822;2023-07-13T12:16:54;101527.47;;;26.85
66113;BMP280;52893;52.870;5.822;2023-07-13T12:19:23;101516.44;;;26.74
66113;BMP280;52893;52.870;5.822;2023-07-13T12:21:54;101532.63;;;26.63
66113;BMP280;52893;52.870;5.822;2023-07-13T12:24:23;101527.81;;;26.64
66113;BMP280;52893;52.870;5.822;2023-07-13T12:26:51;101520.06;;;26.51
66113;BMP280;52893;52.870;5.822;2023-07-13T12:29:19;101525.19;;;26.57
66113;BMP280;52893;52.870;5.822;2023-07-13T12:31:49;101522.13;;;26.71
66113;BMP280;52893;52.870;5.822;2023-07-13T12:34:21;101526.50;;;26.95
66113;BMP280;52893;52.870;5.822;2023-07-13T12:36:50;101535.97;;;27.20
66113;BMP280;52893;52.870;5.822;2023-07-13T12:39:20;101532.13;;;27.34
66113;BMP280;52893;52.870;5.822;2023-07-13T12:41:50;101523.19;;;27.39
66113;BMP280;52893;52.870;5.822;2023-07-13T12:44:23;101528.50;;;27.53
66113;BMP280;52893;52.870;5.822;2023-07-13T12:46:55;101533.91;;;27.64
66113;BMP280;52893;52.870;5.822;2023-07-13T12:49:28;101529.94;;;27.61
66113;BMP280;52893;52.870;5.822;2023-07-13T12:51:57;101529.06;;;27.64
66113;BMP280;52893;52.870;5.822;2023-07-13T12:54:26;101528.16;;;27.51
66113;BMP280;52893;52.870;5.822;2023-07-13T12:56:54;101539.66;;;27.57
66113;BMP280;52893;52.870;5.822;2023-07-13T12:59:25;101533.66;;;27.74
66113;BMP280;52893;52.870;5.822;2023-07-13T13:01:55;101538.88;;;27.92
66113;BMP280;52893;52.870;5.822;2023-07-13T13:04:24;101540.91;;;28.08
66113;BMP280;52893;52.870;5.822;2023-07-13T13:07:01;101543.53;;;27.99
66113;BMP280;52893;52.870;5.822;2023-07-13T13:09:29;101542.19;;;27.87
66113;BMP280;52893;52.870;5.822;2023-07-13T13:11:58;101550.16;;;27.88
66113;BMP280;52893;52.870;5.822;2023-07-13T13:14:25;101545.34;;;27.73
66113;BMP280;52893;52.870;5.822;2023-07-13T13:16:52;101543.69;;;27.56
66113;BMP280;52893;52.870;5.822;2023-07-13T13:19:22;101550.50;;;27.55
66113;BMP280;52893;52.870;5.822;2023-07-13T13:21:53;101548.34;;;27.62
66113;BMP280;52893;52.870;5.822;2023-07-13T13:24:24;101523.75;;;27.50
66113;BMP280;52893;52.870;5.822;2023-07-13T13:26:53;101553.75;;;27.53
66113;BMP280;52893;52.870;5.822;2023-07-13T13:29:23;101552.91;;;27.37
66113;BMP280;52893;52.870;5.822;2023-07-13T13:31:52;101554.69;;;27.27
66113;BMP280;52893;52.870;5.822;2023-07-13T13:34:21;101560.72;;;27.06
66113;BMP280;52893;52.870;5.822;2023-07-13T13:36:49;101566.03;;;26.77
66113;BMP280;52893;52.870;5.822;2023-07-13T13:39:25;101565.44;;;26.66
66113;BMP280;52893;52.870;5.822;2023-07-13T13:41:55;101562.03;;;26.78
66113;BMP280;52893;52.870;5.822;2023-07-13T13:44:22;101571.38;;;26.91
66113;BMP280;52893;52.870;5.822;2023-07-13T13:46:52;101575.81;;;26.69
66113;BMP280;52893;52.870;5.822;2023-07-13T13:49:22;101574.41;;;26.54
66113;BMP280;52893;52.870;5.822;2023-07-13T13:51:51;101567.47;;;26.62
66113;BMP280;52893;52.870;5.822;2023-07-13T13:54:20;101567.84;;;26.64
66113;BMP280;52893;52.870;5.822;2023-07-13T13:56:49;101572.78;;;26.57
66113;BMP280;52893;52.870;5.822;2023-07-13T13:59:18;101572.84;;;26.53
66113;BMP280;52893;52.870;5.822;2023-07-13T14:01:47;101575.06;;;26.38
66113;BMP280;52893;52.870;5.822;2023-07-13T14:04:17;101580.59;;;26.15
66113;BMP280;52893;52.870;5.822;2023-07-13T14:06:46;101580.78;;;26.31
66113;BMP280;52893;52.870;5.822;2023-07-13T14:09:15;101576.69;;;26.63
66113;BMP280;52893;52.870;5.822;2023-07-13T14:11:46;101573.88;;;26.86